Time;durP1;ratioP1;P1;durP2;ratioP2;P2;SDS_P1;SDS_P2;PMS_P1;PMS_P2;Temp;Humidity;BMP_temperature;BMP_pressure;BME280_temperature;BME280_humidity;BME280_pressure;Samples;Min_cycle;Max_cycle;Signal;HPM_P1;HPM_P2
2023/10/12 00:00:42;;;;;;;9.20;4.43;;;19.80;71.80;;;;;;6074668;23;20491;-73
2023/10/12 00:03:08;;;;;;;5.77;3.90;;;19.80;71.70;;;;;;6075033;23;20635;-74
2023/10/12 00:05:38;;;;;;;8.77;4.93;;;19.80;71.70;;;;;;6074304;23;20364;-73
2023/10/12 00:08:10;;;;;;;9.20;3.93;;;19.80;71.60;;;;;;6073999;23;20377;-73
2023/10/12 00:10:44;;;;;;;6.73;4.23;;;19.80;71.70;;;;;;6075241;23;20389;-74
2023/10/12 00:13:13;;;;;;;9.80;4.53;;;19.80;72.00;;;;;;6073238;23;20774;-73
2023/10/12 00:15:45;;;;;;;6.73;4.03;;;19.80;72.00;;;;;;6072791;23;20456;-73
2023/10/12 00:18:14;;;;;;;6.87;4.20;;;19.80;71.90;;;;;;6072942;23;20417;-73
2023/10/12 00:20:43;;;;;;;9.90;4.50;;;19.80;72.00;;;;;;6075397;23;20358;-74
2023/10/12 00:23:09;;;;;;;7.30;4.40;;;19.80;72.10;;;;;;6073273;23;20385;-73
2023/10/12 00:25:46;;;;;;;9.90;4.03;;;19.80;72.10;;;;;;6073479;23;20408;-73
2023/10/12 00:28:17;;;;;;;11.93;5.13;;;19.80;71.90;;;;;;6072451;23;20397;-74
2023/10/12 00:30:54;;;;;;;5.40;4.13;;;19.80;71.80;;;;;;6076517;23;20374;-75
2023/10/12 00:33:21;;;;;;;9.57;4.60;;;19.80;71.70;;;;;;6080769;23;20433;-74
2023/10/12 00:36:04;;;;;;;7.90;4.50;;;19.80;71.90;;;;;;6102380;23;20368;-74
2023/10/12 00:38:30;;;;;;;10.83;5.13;;;19.80;71.70;;;;;;5995635;23;20391;-73
2023/10/12 00:41:00;;;;;;;7.10;4.70;;;19.70;71.60;;;;;;5969047;23;20391;-73
2023/10/12 00:44:08;;;;;;;9.90;4.67;;;19.70;71.60;;;;;;5990492;23;20482;-74
2023/10/12 00:49:14;;;;;;;9.63;5.33;;;19.60;71.80;;;;;;5926883;24;1103866;-74
2023/10/12 00:51:53;;;;;;;7.07;4.40;;;19.60;71.80;;;;;;6019054;23;20143;-73
2023/10/12 00:57:05;;;;;;;7.47;4.13;;;19.60;71.50;;;;;;5993664;23;20390;-74
2023/10/12 00:59:32;;;;;;;7.70;3.67;;;19.60;71.50;;;;;;5994275;23;20431;-74
2023/10/12 01:02:00;;;;;;;6.57;3.20;;;19.60;72.50;;;;;;6020093;23;20368;-73
2023/10/12 01:04:25;;;;;;;8.47;4.30;;;19.50;71.70;;;;;;5971464;23;20418;-72
2023/10/12 01:06:51;;;;;;;7.37;4.87;;;19.50;72.00;;;;;;6017413;23;20356;-74
2023/10/12 01:09:19;;;;;;;6.57;3.80;;;19.40;72.10;;;;;;6001226;23;20562;-73
2023/10/12 01:11:57;;;;;;;6.47;4.43;;;19.40;72.30;;;;;;6075131;23;20220;-73
2023/10/12 01:14:26;;;;;;;7.67;3.90;;;19.40;72.40;;;;;;6077998;23;20427;-73
2023/10/12 01:16:58;;;;;;;8.60;4.57;;;19.40;72.40;;;;;;6075102;23;20883;-73
2023/10/12 01:19:31;;;;;;;5.80;3.90;;;19.40;72.50;;;;;;6076513;23;20377;-74
2023/10/12 01:22:07;;;;;;;10.60;4.47;;;19.40;72.60;;;;;;6076858;23;20509;-73
2023/10/12 01:24:33;;;;;;;5.90;4.47;;;19.40;72.80;;;;;;6075794;23;20399;-73
2023/10/12 01:26:59;;;;;;;11.50;5.20;;;19.30;72.60;;;;;;6076351;23;20381;-72
2023/10/12 01:29:25;;;;;;;11.27;3.90;;;19.30;72.60;;;;;;6076165;23;20137;-73
2023/10/12 01:34:39;;;;;;;9.53;4.43;;;19.30;72.50;;;;;;6076769;23;20425;-73
2023/10/12 01:42:42;;;;;;;6.27;4.80;;;19.20;72.40;;;;;;6076010;23;20362;-73
2023/10/12 01:45:17;;;;;;;10.80;4.80;;;19.20;72.20;;;;;;6075397;23;20412;-72
2023/10/12 01:47:44;;;;;;;6.37;3.83;;;19.20;71.60;;;;;;6077442;23;20427;-74
2023/10/12 01:50:11;;;;;;;11.20;4.60;;;19.20;71.10;;;;;;6077012;23;20781;-74
2023/10/12 01:52:37;;;;;;;8.97;4.50;;;19.20;70.80;;;;;;6075088;23;20457;-73
2023/10/12 01:55:16;;;;;;;9.60;5.47;;;19.20;70.50;;;;;;6075289;23;20427;-74
2023/10/12 01:57:53;;;;;;;10.50;4.60;;;19.30;69.90;;;;;;6090149;23;20360;-76
2023/10/12 02:00:28;;;;;;;7.47;4.07;;;19.30;69.60;;;;;;6090755;23;20365;-73
2023/10/12 02:03:17;;;;;;;8.17;4.60;;;19.30;69.50;;;;;;6090706;23;20392;-73
2023/10/12 02:06:16;;;;;;;11.47;4.50;;;19.30;69.50;;;;;;6090147;23;20468;-73
2023/10/12 02:08:39;;;;;;;15.60;5.27;;;19.20;69.50;;;;;;6083076;23;20378;-73
2023/10/12 02:11:11;;;;;;;11.80;4.20;;;19.30;68.90;;;;;;6061729;23;20397;-74
2023/10/12 02:13:37;;;;;;;6.60;4.53;;;19.30;69.00;;;;;;6078877;23;20420;-76
2023/10/12 02:16:06;;;;;;;8.30;3.70;;;19.20;68.70;;;;;;6083489;23;20771;-73
2023/10/12 02:18:33;;;;;;;10.07;4.40;;;19.20;68.70;;;;;;6081818;23;20401;-74
2023/10/12 02:21:07;;;;;;;9.50;4.00;;;19.20;68.40;;;;;;6056821;23;20386;-73
2023/10/12 02:23:38;;;;;;;10.30;5.00;;;19.10;68.30;;;;;;6078907;23;20464;-73
2023/10/12 02:28:53;;;;;;;10.43;3.47;;;19.10;67.80;;;;;;6076515;23;20369;-73
2023/10/12 02:31:20;;;;;;;11.73;4.87;;;19.10;67.80;;;;;;6075595;23;20394;-74
2023/10/12 02:33:46;;;;;;;10.07;4.13;;;19.10;67.50;;;;;;6076132;23;20429;-73
2023/10/12 02:36:13;;;;;;;8.00;4.37;;;19.10;67.60;;;;;;6075530;23;20446;-75
2023/10/12 02:38:41;;;;;;;7.57;4.40;;;19.00;67.40;;;;;;6078486;23;20141;-73
2023/10/12 02:41:12;;;;;;;15.97;4.57;;;19.00;67.80;;;;;;6078209;23;20376;-71
2023/10/12 02:43:49;;;;;;;7.40;4.00;;;18.90;68.40;;;;;;6079155;23;20424;-72
2023/10/12 02:46:22;;;;;;;6.00;4.20;;;18.90;69.10;;;;;;6078093;23;20397;-73
2023/10/12 02:48:51;;;;;;;9.13;5.20;;;18.80;70.00;;;;;;6089480;23;20449;-76
2023/10/12 02:51:22;;;;;;;10.17;5.03;;;18.70;71.30;;;;;;6084854;23;20376;-73
2023/10/12 02:53:50;;;;;;;10.97;5.03;;;18.60;72.10;;;;;;6053979;23;20423;-74
2023/10/12 02:56:24;;;;;;;10.30;5.00;;;18.60;73.40;;;;;;6080016;23;20474;-74
2023/10/12 02:58:49;;;;;;;9.53;5.63;;;18.50;74.60;;;;;;6075440;23;20369;-73
2023/10/12 03:01:19;;;;;;;11.23;5.37;;;18.40;75.20;;;;;;6076573;23;20401;-71
2023/10/12 03:03:48;;;;;;;10.43;5.03;;;18.40;75.70;;;;;;6079539;23;20438;-73
2023/10/12 03:06:21;;;;;;;7.87;5.10;;;18.30;76.40;;;;;;6075161;23;20656;-73
2023/10/12 03:09:14;;;;;;;8.40;5.50;;;18.30;77.10;;;;;;6077284;23;20365;-72
2023/10/12 03:11:42;;;;;;;7.90;5.00;;;18.30;77.60;;;;;;6075178;23;20372;-71
2023/10/12 03:14:15;;;;;;;10.10;5.63;;;18.20;78.50;;;;;;6083655;23;20417;-73
2023/10/12 03:16:42;;;;;;;12.63;5.87;;;18.20;79.60;;;;;;6076326;23;20396;-74
2023/10/12 03:19:26;;;;;;;9.13;5.30;;;18.10;80.20;;;;;;6078267;23;20460;-74
2023/10/12 03:21:52;;;;;;;7.90;4.87;;;18.10;81.40;;;;;;6056080;23;20381;-73
2023/10/12 03:24:30;;;;;;;9.10;5.20;;;18.00;82.00;;;;;;6075973;23;20412;-73
2023/10/12 03:27:10;;;;;;;7.60;5.73;;;18.00;83.10;;;;;;6052854;23;20380;-75
2023/10/12 03:29:43;;;;;;;9.63;5.70;;;17.90;83.80;;;;;;6059203;23;20383;-74
2023/10/12 03:32:16;;;;;;;5.80;4.67;;;17.90;84.70;;;;;;6087217;23;20382;-75
2023/10/12 03:37:14;;;;;;;7.80;5.00;;;17.80;86.70;;;;;;6082014;23;20395;-72
2023/10/12 03:45:34;;;;;;;7.67;4.53;;;17.70;89.80;;;;;;6032629;23;20408;-77
2023/10/12 03:50:58;;;;;;;5.80;4.50;;;17.60;91.60;;;;;;6009872;23;20364;-73
2023/10/12 03:53:30;;;;;;;10.73;5.90;;;17.60;92.70;;;;;;6000787;23;20447;-75
2023/10/12 03:55:58;;;;;;;6.30;4.93;;;17.50;93.80;;;;;;5996082;23;20384;-73
2023/10/12 03:58:24;;;;;;;6.33;5.13;;;17.50;94.90;;;;;;5992780;23;20430;-74
2023/10/12 04:01:07;;;;;;;4.43;4.03;;;17.50;96.20;;;;;;6024796;23;20381;-73
2023/10/12 04:03:37;;;;;;;5.83;4.07;;;17.40;97.20;;;;;;5993175;23;20172;-73
2023/10/12 04:06:22;;;;;;;5.90;4.10;;;17.40;98.00;;;;;;5993144;23;20467;-74
2023/10/12 04:08:59;;;;;;;6.83;4.03;;;17.40;99.00;;;;;;6020823;23;20468;-75
2023/10/12 04:14:38;;;;;;;3.93;3.40;;;17.40;99.90;;;;;;5991963;23;20514;-74
2023/10/12 04:17:08;;;;;;;3.97;3.00;;;17.40;99.90;;;;;;5993951;23;20421;-73
2023/10/12 04:19:34;;;;;;;6.10;3.93;;;17.30;99.90;;;;;;6031931;23;20379;-75
2023/10/12 04:22:24;;;;;;;5.90;4.30;;;17.30;99.90;;;;;;6028215;23;20387;-74
2023/10/12 04:24:54;;;;;;;7.50;4.30;;;17.30;99.90;;;;;;6052825;23;20397;-74
2023/10/12 04:29:51;;;;;;;3.60;3.13;;;17.30;99.90;;;;;;6053259;23;20414;-73
2023/10/12 04:32:35;;;;;;;3.33;3.03;;;17.30;99.90;;;;;;6055466;23;20443;-74
2023/10/12 04:35:09;;;;;;;4.60;3.80;;;17.30;99.90;;;;;;6054738;23;20416;-74
2023/10/12 04:37:38;;;;;;;6.00;3.90;;;17.30;99.90;;;;;;6033962;23;20404;-73
2023/10/12 04:40:30;;;;;;;6.63;4.93;;;17.30;99.90;;;;;;6080513;23;20357;-74
2023/10/12 04:42:53;;;;;;;7.10;4.50;;;17.30;99.90;;;;;;6081843;23;20385;-71
2023/10/12 04:45:24;;;;;;;6.63;4.27;;;17.30;99.90;;;;;;6055383;23;20382;-73
2023/10/12 04:47:57;;;;;;;8.70;5.63;;;17.30;99.90;;;;;;6064101;23;20435;-74
2023/10/12 04:50:43;;;;;;;8.23;6.37;;;17.30;99.90;;;;;;6080987;23;20388;-75
2023/10/12 04:53:11;;;;;;;13.23;6.20;;;17.30;99.90;;;;;;6082259;23;20368;-74
2023/10/12 04:55:40;;;;;;;8.30;5.87;;;17.30;99.90;;;;;;6063710;23;20380;-73
2023/10/12 04:58:17;;;;;;;9.43;6.23;;;17.30;99.90;;;;;;6055494;23;20396;-73
2023/10/12 05:00:48;;;;;;;12.83;6.60;;;17.30;99.90;;;;;;6055823;23;20385;-73
2023/10/12 05:03:23;;;;;;;8.70;5.90;;;17.20;99.90;;;;;;6078440;23;20392;-73
2023/10/12 05:06:04;;;;;;;7.80;5.93;;;17.20;99.90;;;;;;6055369;23;20386;-73
2023/10/12 05:08:33;;;;;;;9.77;6.50;;;17.10;99.90;;;;;;6054033;23;20403;-73
2023/10/12 05:10:58;;;;;;;9.77;6.80;;;17.00;99.90;;;;;;6057371;23;20382;-74
2023/10/12 05:13:25;;;;;;;9.97;6.40;;;16.90;99.90;;;;;;6055472;23;20427;-75
2023/10/12 05:15:55;;;;;;;7.00;6.00;;;16.80;99.90;;;;;;6082718;23;20136;-74
2023/10/12 05:18:25;;;;;;;8.83;6.40;;;16.70;99.90;;;;;;6058403;23;20368;-76
2023/10/12 05:20:52;;;;;;;9.47;6.50;;;16.60;99.90;;;;;;6058976;23;20659;-75
2023/10/12 05:23:19;;;;;;;7.43;5.57;;;16.50;99.90;;;;;;6058767;23;20397;-75
2023/10/12 05:28:27;;;;;;;6.87;6.00;;;16.30;99.90;;;;;;6084285;23;20395;-75
2023/10/12 05:31:09;;;;;;;8.20;6.47;;;16.20;99.90;;;;;;6083984;23;20369;-73
2023/10/12 05:36:09;;;;;;;6.37;4.90;;;16.20;99.90;;;;;;6084010;23;20384;-74
2023/10/12 05:38:50;;;;;;;8.17;5.20;;;16.20;99.90;;;;;;6061422;23;20394;-75
2023/10/12 05:41:33;;;;;;;8.00;5.57;;;16.20;99.90;;;;;;6062134;23;20429;-76
2023/10/12 05:44:01;;;;;;;6.30;5.53;;;16.30;99.90;;;;;;6044148;23;20410;-74
2023/10/12 05:46:33;;;;;;;8.77;6.60;;;16.30;99.90;;;;;;6085214;23;20388;-74
2023/10/12 05:49:12;;;;;;;11.53;6.97;;;16.30;99.90;;;;;;6087561;23;20421;-75
2023/10/12 05:51:43;;;;;;;8.43;6.33;;;16.30;99.90;;;;;;6041043;23;20452;-74
2023/10/12 05:54:19;;;;;;;8.40;6.20;;;16.20;99.90;;;;;;6026203;23;20421;-77
2023/10/12 05:56:44;;;;;;;6.70;6.00;;;16.20;99.90;;;;;;6001940;23;20446;-74
2023/10/12 05:59:13;;;;;;;9.67;6.90;;;16.10;99.90;;;;;;6002433;23;20389;-75
2023/10/12 06:01:45;;;;;;;8.60;6.70;;;16.10;99.90;;;;;;5981208;23;20151;-76
2023/10/12 06:04:14;;;;;;;8.50;6.80;;;16.10;99.90;;;;;;6001784;23;20407;-74
2023/10/12 06:06:43;;;;;;;7.30;6.43;;;16.10;99.90;;;;;;5976751;23;20380;-76
2023/10/12 06:09:20;;;;;;;11.40;7.40;;;16.00;99.90;;;;;;5977196;23;20395;-74
2023/10/12 06:11:47;;;;;;;7.60;5.97;;;16.00;99.90;;;;;;6000194;23;20380;-74
2023/10/12 06:14:14;;;;;;;9.20;6.97;;;15.90;99.90;;;;;;6003339;23;20411;-75
2023/10/12 06:16:41;;;;;;;14.27;7.80;;;15.90;99.90;;;;;;5981082;23;20376;-75
2023/10/12 06:19:26;;;;;;;9.37;7.90;;;15.90;99.90;;;;;;5979027;23;20519;-76
2023/10/12 06:21:52;;;;;;;9.80;6.90;;;15.80;99.90;;;;;;6025132;23;20364;-75
2023/10/12 06:24:29;;;;;;;8.37;7.07;;;15.80;99.90;;;;;;6009839;23;20402;-75
2023/10/12 06:26:55;;;;;;;8.63;7.20;;;15.70;99.90;;;;;;6085585;23;20380;-73
2023/10/12 06:29:28;;;;;;;10.40;8.27;;;15.70;99.90;;;;;;6035376;23;20374;-74
2023/10/12 06:31:54;;;;;;;9.13;7.20;;;15.60;99.90;;;;;;6086152;23;20193;-75
2023/10/12 06:34:22;;;;;;;8.73;6.77;;;15.60;99.90;;;;;;6037479;23;20418;-77
2023/10/12 06:36:57;;;;;;;10.60;7.10;;;15.60;99.90;;;;;;6085403;23;20354;-74
2023/10/12 06:47:28;;;;;;;8.37;6.90;;;15.50;99.90;;;;;;6083550;23;20381;-74
2023/10/12 06:49:51;;;;;;;9.30;7.47;;;15.50;99.90;;;;;;6083761;23;20422;-77
2023/10/12 06:52:19;;;;;;;10.87;9.20;;;15.50;99.90;;;;;;6085491;23;20633;-75
2023/10/12 06:54:54;;;;;;;10.40;8.17;;;15.50;99.90;;;;;;6060467;23;20505;-76
2023/10/12 06:59:52;;;;;;;11.53;9.03;;;15.40;99.90;;;;;;6087652;23;20373;-77
2023/10/12 07:02:31;;;;;;;10.50;7.67;;;15.40;99.90;;;;;;6083866;23;20373;-77
2023/10/12 07:04:59;;;;;;;10.70;9.03;;;15.40;99.90;;;;;;6061326;23;20448;-77
2023/10/12 07:07:27;;;;;;;14.07;9.00;;;15.40;99.90;;;;;;6087636;23;20381;-76
2023/10/12 07:10:13;;;;;;;10.23;8.60;;;15.40;99.90;;;;;;6085198;23;20393;-75
2023/10/12 07:12:47;;;;;;;11.73;9.00;;;15.40;99.90;;;;;;6084891;23;20361;-76
2023/10/12 07:15:22;;;;;;;14.03;8.17;;;15.40;99.90;;;;;;6085153;23;20435;-76
2023/10/12 07:17:53;;;;;;;10.30;8.53;;;15.50;99.90;;;;;;6060339;23;20372;-75
2023/10/12 07:23:05;;;;;;;15.00;9.67;;;15.50;99.90;;;;;;6085351;23;20416;-77
2023/10/12 07:25:35;;;;;;;12.57;9.20;;;15.50;99.90;;;;;;6062385;23;20373;-77
2023/10/12 07:28:15;;;;;;;13.80;10.23;;;15.50;99.90;;;;;;6086307;23;20353;-77
2023/10/12 07:30:44;;;;;;;11.50;9.33;;;15.50;99.90;;;;;;6085522;23;20382;-75
2023/10/12 07:33:10;;;;;;;12.73;9.43;;;15.50;99.90;;;;;;6061897;23;20365;-76
2023/10/12 07:35:38;;;;;;;13.37;10.00;;;15.50;99.90;;;;;;6063957;23;20370;-74
2023/10/12 07:38:13;;;;;;;11.40;8.40;;;15.50;99.90;;;;;;6061291;23;20382;-79
2023/10/12 07:40:56;;;;;;;11.67;9.50;;;15.50;99.90;;;;;;6066250;23;20391;-80
2023/10/12 07:43:24;;;;;;;11.20;8.37;;;15.60;99.90;;;;;;6088183;23;20400;-76
2023/10/12 07:45:52;;;;;;;11.50;7.97;;;15.50;99.90;;;;;;6061791;23;20382;-75
2023/10/12 07:48:29;;;;;;;12.90;8.20;;;15.60;99.90;;;;;;6063476;23;20414;-77
2023/10/12 07:51:15;;;;;;;10.43;7.70;;;15.60;99.90;;;;;;6089598;23;20365;-76
2023/10/12 07:54:00;;;;;;;12.03;7.80;;;15.60;99.90;;;;;;6088466;23;20441;-76
2023/10/12 07:56:33;;;;;;;9.80;6.77;;;15.60;99.90;;;;;;6063459;23;20381;-77
2023/10/12 07:59:08;;;;;;;9.73;7.87;;;15.70;99.90;;;;;;6089240;23;20378;-77
2023/10/12 08:04:33;;;;;;;10.67;7.80;;;15.70;99.90;;;;;;5984243;24;20404;-76
2023/10/12 08:07:26;;;;;;;17.77;9.50;;;15.80;99.90;;;;;;5984944;24;20389;-75
2023/10/12 08:10:08;;;;;;;8.87;7.63;;;15.90;99.90;;;;;;5980583;24;20482;-77
2023/10/12 08:12:45;;;;;;;10.30;7.60;;;16.00;99.90;;;;;;5979127;24;20384;-78
2023/10/12 08:15:12;;;;;;;8.37;7.50;;;16.10;99.90;;;;;;5958122;24;20443;-77
2023/10/12 08:17:45;;;;;;;12.30;8.50;;;16.30;99.90;;;;;;5955149;24;20378;-76
2023/10/12 08:20:45;;;;;;;13.03;8.40;;;16.30;99.90;;;;;;5978767;24;20376;-76
2023/10/12 08:23:02;;;;;;;8.07;7.07;;;16.50;99.90;;;;;;5977924;24;20396;-76
2023/10/12 08:25:37;;;;;;;9.30;7.60;;;16.50;99.90;;;;;;5957545;24;20388;-77
2023/10/12 08:28:18;;;;;;;9.43;7.30;;;16.60;99.90;;;;;;5959126;24;20396;-77
2023/10/12 08:31:01;;;;;;;10.20;8.23;;;16.70;99.90;;;;;;5988168;23;21320;-75
2023/10/12 08:39:37;;;;;;;10.30;7.00;;;16.90;99.90;;;;;;6060693;23;20521;-78
2023/10/12 08:44:34;;;;;;;12.10;6.70;;;17.00;99.90;;;;;;6028940;23;20388;-75
2023/10/12 08:47:09;;;;;;;12.43;6.97;;;17.00;99.90;;;;;;6035690;23;20468;-77
2023/10/12 08:49:52;;;;;;;10.10;8.10;;;17.10;99.90;;;;;;6037247;23;20350;-77
2023/10/12 08:52:28;;;;;;;10.37;7.97;;;17.20;99.90;;;;;;6082751;23;20376;-77
2023/10/12 08:55:14;;;;;;;7.90;7.10;;;17.30;99.90;;;;;;6058826;23;20466;-76
2023/10/12 08:58:01;;;;;;;8.07;7.23;;;17.30;99.90;;;;;;6036093;23;20820;-77
2023/10/12 09:06:00;;;;;;;11.33;7.27;;;17.50;99.90;;;;;;6036006;23;20407;-76
2023/10/12 09:11:02;;;;;;;7.70;6.80;;;17.50;99.90;;;;;;6057209;23;20392;-76
2023/10/12 09:13:34;;;;;;;7.50;5.87;;;17.60;99.90;;;;;;6012274;23;20428;-76
2023/10/12 09:16:23;;;;;;;9.20;7.47;;;17.60;99.90;;;;;;6035797;23;20383;-74
2023/10/12 09:18:57;;;;;;;7.50;6.70;;;17.70;99.90;;;;;;6056300;23;20397;-77
2023/10/12 09:21:38;;;;;;;6.43;5.63;;;17.80;99.90;;;;;;6084950;23;20381;-75
2023/10/12 09:24:08;;;;;;;7.20;5.90;;;17.90;99.90;;;;;;6060637;23;20405;-76
2023/10/12 09:26:34;;;;;;;8.17;7.30;;;18.00;99.90;;;;;;6065477;23;20448;-76
2023/10/12 09:34:44;;;;;;;11.53;8.20;;;18.30;99.90;;;;;;6060671;23;20433;-77
2023/10/12 09:37:20;;;;;;;11.10;8.50;;;18.40;99.90;;;;;;6086138;23;20393;-78
2023/10/12 09:39:47;;;;;;;12.93;7.63;;;18.50;99.90;;;;;;6058578;23;20430;-76
2023/10/12 09:42:28;;;;;;;11.07;7.60;;;18.60;99.90;;;;;;6036680;23;20449;-78
2023/10/12 09:45:08;;;;;;;8.83;6.37;;;18.70;99.90;;;;;;6083589;23;20845;-78
2023/10/12 09:47:50;;;;;;;7.47;5.83;;;18.90;99.90;;;;;;6085347;23;20397;-76
2023/10/12 09:50:27;;;;;;;8.60;6.67;;;19.10;99.90;;;;;;6087143;23;20454;-77
2023/10/12 09:55:54;;;;;;;10.97;7.20;;;19.40;99.90;;;;;;6120669;23;20460;-77
2023/10/12 09:58:32;;;;;;;7.37;6.17;;;19.60;99.90;;;;;;6119772;23;20376;-76
2023/10/12 10:01:07;;;;;;;9.50;6.77;;;19.80;99.90;;;;;;6118941;23;20392;-75
2023/10/12 10:03:52;;;;;;;9.97;7.50;;;19.90;99.90;;;;;;6115265;23;20465;-78
2023/10/12 10:06:37;;;;;;;7.33;5.53;;;19.90;99.90;;;;;;6090870;23;20389;-77
2023/10/12 10:11:39;;;;;;;7.67;6.10;;;20.00;99.90;;;;;;6070377;23;20356;-78
2023/10/12 10:14:13;;;;;;;8.60;5.93;;;20.10;99.90;;;;;;6062582;23;20426;-77
2023/10/12 10:25:07;;;;;;;7.80;6.40;;;20.40;99.90;;;;;;6152875;23;20442;-78
2023/10/12 10:27:35;;;;;;;7.53;5.57;;;20.50;99.90;;;;;;6127745;23;20411;-79
2023/10/12 10:31:12;;;;;;;9.60;7.00;;;20.40;99.90;;;;;;6149904;23;20368;-77
2023/10/12 10:33:36;;;;;;;8.50;5.40;;;20.50;99.90;;;;;;6147419;23;20442;-77
2023/10/12 10:36:13;;;;;;;9.10;6.80;;;20.40;99.90;;;;;;6126319;23;20374;-79
2023/10/12 10:42:18;;;;;;;9.57;6.70;;;20.60;99.90;;;;;;6176888;23;20367;-78
2023/10/12 10:44:43;;;;;;;9.13;7.10;;;20.70;99.90;;;;;;6131433;23;20408;-78
2023/10/12 10:47:15;;;;;;;7.40;5.30;;;20.70;99.90;;;;;;6126557;23;20368;-77
2023/10/12 10:49:45;;;;;;;9.97;7.20;;;20.90;99.90;;;;;;6126448;23;20372;-78
2023/10/12 10:52:20;;;;;;;8.70;6.60;;;21.10;99.90;;;;;;6150383;23;20376;-78
2023/10/12 10:55:01;;;;;;;7.40;5.67;;;21.20;99.90;;;;;;6078287;23;20442;-78
2023/10/12 10:57:37;;;;;;;8.17;7.37;;;21.40;99.90;;;;;;6104800;23;20418;-77
2023/10/12 11:00:15;;;;;;;9.77;6.77;;;21.30;99.90;;;;;;6100488;23;20419;-79
2023/10/12 11:02:47;;;;;;;9.37;7.43;;;21.30;99.90;;;;;;6124925;23;20872;-77
2023/10/12 11:05:28;;;;;;;10.00;7.00;;;21.40;99.90;;;;;;6150203;23;20451;-78
2023/10/12 11:08:31;;;;;;;9.90;7.40;;;21.40;99.90;;;;;;6103342;23;20391;-78
2023/10/12 11:13:55;;;;;;;9.10;5.40;;;21.50;99.90;;;;;;6034189;23;20431;-78
2023/10/12 11:16:38;;;;;;;11.70;6.83;;;21.50;99.90;;;;;;6033871;23;20387;-80
2023/10/12 11:19:11;;;;;;;12.40;5.97;;;21.60;99.90;;;;;;6037242;23;20398;-79
2023/10/12 11:21:51;;;;;;;8.63;6.10;;;21.70;99.90;;;;;;6011042;23;20439;-77
2023/10/12 11:24:23;;;;;;;8.50;6.33;;;21.80;99.90;;;;;;6011622;23;20427;-79
2023/10/12 11:26:57;;;;;;;9.53;5.27;;;21.80;99.90;;;;;;6035867;23;20352;-78
2023/10/12 11:29:25;;;;;;;8.00;6.13;;;21.80;99.90;;;;;;6012703;23;20399;-78
2023/10/12 11:32:09;;;;;;;12.90;6.80;;;21.80;99.90;;;;;;6011775;23;20435;-80
2023/10/12 11:34:52;;;;;;;9.00;5.40;;;21.70;99.90;;;;;;6063375;23;20451;-77
2023/10/12 11:37:38;;;;;;;8.87;5.77;;;21.80;99.90;;;;;;6100601;23;20364;-78
2023/10/12 11:40:10;;;;;;;8.57;5.47;;;21.80;99.70;;;;;;6120767;23;20399;-79
2023/10/12 11:42:53;;;;;;;7.93;5.37;;;22.00;99.40;;;;;;6101189;23;20393;-77
2023/10/12 11:45:33;;;;;;;7.87;6.20;;;21.90;99.10;;;;;;6042332;23;20422;-79
2023/10/12 11:48:21;;;;;;;7.83;4.97;;;22.00;98.40;;;;;;6047784;23;20467;-77
2023/10/12 11:50:51;;;;;;;10.70;6.10;;;21.90;96.90;;;;;;6069589;23;20385;-78
2023/10/12 11:53:19;;;;;;;11.50;6.30;;;21.90;96.70;;;;;;6068817;23;20885;-77
2023/10/12 11:55:48;;;;;;;9.73;5.90;;;21.80;96.40;;;;;;6068977;23;20413;-79
2023/10/12 11:58:19;;;;;;;8.80;5.47;;;21.90;96.10;;;;;;6068640;23;20361;-77
2023/10/12 12:00:50;;;;;;;5.70;3.93;;;21.80;96.00;;;;;;6092422;23;20444;-77
2023/10/12 12:03:22;;;;;;;7.13;5.20;;;21.80;96.20;;;;;;6068922;23;20421;-78
2023/10/12 12:05:51;;;;;;;5.10;4.60;;;21.90;95.90;;;;;;6091426;23;20397;-79
2023/10/12 12:08:32;;;;;;;10.43;6.03;;;22.00;95.80;;;;;;6075639;23;20373;-79
2023/10/12 12:11:09;;;;;;;6.73;5.17;;;22.10;95.40;;;;;;6122303;23;20392;-78
2023/10/12 12:13:48;;;;;;;7.37;5.00;;;22.20;95.70;;;;;;6121424;23;20413;-79
2023/10/12 12:16:23;;;;;;;7.57;5.13;;;22.20;95.20;;;;;;6075819;23;20380;-78
2023/10/12 12:18:55;;;;;;;12.17;6.10;;;22.10;94.90;;;;;;6122303;23;20365;-77
2023/10/12 12:21:30;;;;;;;9.63;7.10;;;22.10;94.50;;;;;;6145952;23;20404;-77
2023/10/12 12:24:01;;;;;;;6.70;5.00;;;21.90;94.50;;;;;;6122636;23;20423;-79
2023/10/12 12:26:33;;;;;;;8.63;5.80;;;21.70;94.90;;;;;;6122100;23;20400;-78
2023/10/12 12:29:04;;;;;;;10.43;7.43;;;21.60;94.80;;;;;;6122180;23;20377;-79
2023/10/12 12:31:57;;;;;;;7.43;6.00;;;21.50;94.80;;;;;;6084203;23;20403;-78
2023/10/12 12:34:38;;;;;;;8.27;4.97;;;21.30;95.20;;;;;;6096220;23;20436;-77
2023/10/12 12:37:06;;;;;;;8.70;6.40;;;21.30;95.40;;;;;;6121467;23;20395;-80
2023/10/12 12:39:37;;;;;;;8.43;5.90;;;21.20;95.50;;;;;;6121232;23;20389;-78
2023/10/12 12:42:10;;;;;;;10.00;6.00;;;21.20;95.60;;;;;;6097861;23;20380;-78
2023/10/12 12:44:42;;;;;;;6.60;5.90;;;21.20;95.70;;;;;;6121603;23;20867;-78
2023/10/12 12:47:11;;;;;;;7.13;5.00;;;21.10;95.80;;;;;;6076819;23;20455;-78
2023/10/12 12:50:23;;;;;;;8.10;4.83;;;21.00;95.90;;;;;;6052522;23;20381;31
2023/10/12 13:06:45;;;;;;;5.20;4.23;;;20.30;98.10;;;;;;6106679;23;20444;-80
2023/10/12 13:09:28;;;;;;;7.17;5.00;;;20.20;98.80;;;;;;6046705;23;20396;-78
2023/10/12 13:11:57;;;;;;;9.80;5.10;;;20.10;99.10;;;;;;6049841;23;20381;-77
2023/10/12 13:14:28;;;;;;;10.20;4.83;;;20.20;99.70;;;;;;6037620;23;20439;-77
2023/10/12 13:16:55;;;;;;;8.10;4.80;;;20.20;99.90;;;;;;6038077;23;20449;-76
2023/10/12 13:19:37;;;;;;;6.97;4.07;;;20.20;99.90;;;;;;6048603;23;20431;-79
2023/10/12 13:22:04;;;;;;;4.50;3.83;;;20.10;99.90;;;;;;5983179;23;20387;-79
2023/10/12 13:24:35;;;;;;;7.73;5.53;;;20.00;99.90;;;;;;5936862;24;20480;-78
2023/10/12 13:27:08;;;;;;;7.23;4.90;;;19.70;99.90;;;;;;6078562;23;20457;-77
2023/10/12 13:29:36;;;;;;;5.47;4.73;;;19.40;99.90;;;;;;6128608;23;20375;-79
2023/10/12 13:32:08;;;;;;;7.23;3.93;;;19.20;99.90;;;;;;6106234;23;20383;-78
2023/10/12 13:34:36;;;;;;;5.80;4.20;;;19.10;99.90;;;;;;6136091;23;20455;-78
2023/10/12 13:37:05;;;;;;;6.77;5.27;;;19.00;99.90;;;;;;6083071;23;20394;-76
2023/10/12 13:39:31;;;;;;;5.90;5.30;;;18.90;99.90;;;;;;6127116;23;20387;-78
2023/10/12 13:41:58;;;;;;;9.10;5.30;;;18.80;99.90;;;;;;6129000;23;20136;-78
2023/10/12 13:44:25;;;;;;;5.77;5.00;;;18.70;99.90;;;;;;6152283;23;20453;-78
2023/10/12 13:46:54;;;;;;;6.40;5.13;;;18.60;99.90;;;;;;6152677;23;20369;-78
2023/10/12 13:49:22;;;;;;;8.20;4.80;;;18.60;99.90;;;;;;6103025;23;20376;-76
2023/10/12 13:51:53;;;;;;;6.30;5.43;;;18.50;99.90;;;;;;6103519;23;20685;-77
2023/10/12 13:54:36;;;;;;;7.17;4.77;;;18.60;99.90;;;;;;6128705;23;20423;-77
2023/10/12 13:57:07;;;;;;;5.57;4.67;;;18.60;99.90;;;;;;6127877;23;20360;-79
2023/10/12 13:59:36;;;;;;;10.43;5.20;;;18.50;99.90;;;;;;6104385;23;20392;-78
2023/10/12 14:02:05;;;;;;;8.23;6.00;;;18.60;99.90;;;;;;6150390;23;20367;-77
2023/10/12 14:04:37;;;;;;;6.60;5.03;;;18.70;99.90;;;;;;6126128;23;20399;-78
2023/10/12 14:07:03;;;;;;;5.30;4.63;;;18.70;99.90;;;;;;6124970;23;20395;-77
2023/10/12 14:09:31;;;;;;;10.90;6.10;;;18.80;99.90;;;;;;6066700;23;20405;-76
2023/10/12 14:11:59;;;;;;;9.70;5.67;;;18.90;99.90;;;;;;6087248;23;20187;-78
2023/10/12 14:14:49;;;;;;;6.70;5.07;;;18.90;99.90;;;;;;6121177;23;20424;-79
2023/10/12 14:17:25;;;;;;;8.67;5.47;;;19.00;99.90;;;;;;6097084;23;20396;-78
2023/10/12 14:20:09;;;;;;;7.60;4.23;;;19.10;99.90;;;;;;6076424;23;20405;-78
2023/10/12 14:28:53;;;;;;;7.67;4.77;;;19.30;99.90;;;;;;6095149;23;20452;-77
2023/10/12 14:31:26;;;;;;;7.27;6.13;;;19.30;99.90;;;;;;6052177;23;20518;-78
2023/10/12 14:33:53;;;;;;;11.50;6.57;;;19.20;99.90;;;;;;6104409;23;20424;-77
2023/10/12 14:36:27;;;;;;;9.67;7.53;;;19.20;99.90;;;;;;6139459;23;20202;-77
2023/10/12 14:39:24;;;;;;;13.60;5.90;;;19.20;99.90;;;;;;6149522;23;20379;-77
2023/10/12 14:41:50;;;;;;;10.10;6.80;;;19.10;99.90;;;;;;6118056;23;20563;-78
2023/10/12 14:44:16;;;;;;;7.30;5.70;;;19.10;99.90;;;;;;6106916;23;20488;-77
2023/10/12 14:46:45;;;;;;;7.23;5.20;;;19.10;99.90;;;;;;6073412;23;20353;-79
2023/10/12 14:49:14;;;;;;;10.37;6.97;;;19.10;99.90;;;;;;6073974;23;20365;-79
2023/10/12 14:51:42;;;;;;;9.43;6.20;;;19.10;99.90;;;;;;6120535;23;20384;-78
2023/10/12 14:54:17;;;;;;;6.10;5.13;;;19.10;99.90;;;;;;6097328;23;20424;-78
2023/10/12 14:56:47;;;;;;;7.97;4.90;;;18.90;99.90;;;;;;6094990;23;20404;-79
2023/10/12 14:59:16;;;;;;;7.07;5.80;;;18.70;99.90;;;;;;6094638;23;20663;-77
2023/10/12 15:01:42;;;;;;;9.00;5.50;;;18.60;99.90;;;;;;6072340;23;20408;-76
2023/10/12 15:04:21;;;;;;;10.83;7.70;;;18.50;99.90;;;;;;6075362;23;20458;-79
2023/10/12 15:06:48;;;;;;;10.93;6.27;;;18.50;99.90;;;;;;6040605;23;20401;-78
2023/10/12 15:09:23;;;;;;;6.97;5.70;;;18.50;99.90;;;;;;6040565;23;20385;-77
2023/10/12 15:14:26;;;;;;;7.10;5.40;;;18.60;99.90;;;;;;6098468;23;20444;-79